Sunset Beach, NC

10:09 AM EST on December 21, 2014 (GMT -0500)
Wyndfall At Sandpiper Bay | Change Station
CLOSE
Current Station
Personal Weather Station
Location: Sunset Beach, NC
Elevation: 20 ft
Nearby Weather Stations

Elev 20 ft 33.92 °N, 78.50 °W | Updated 5 seconds ago

Overcast
Overcast
43.5 °F
Feels Like 41 °F
N
4.7
Wind Variable Wind from NNE
Gusts 11.5 mph

Today
High -- | Low -- °F
--% Chance of Precip.
Yesterday
High -- | Low -- °F
Precip. -- in
7:15 AM 5:09 PM
Waning Crescent, 0% visible
Pressure 30.26 in
Visibility 10.0 miles
Clouds Mostly Cloudy 6500 ft
Overcast 11000 ft
Windchill 41 °F
Dew Point 39 °F
Humidity 83%
Rainfall 0.00 in
Snow Depth Not available.
UV 1 out of 12
Pollen .60 out of 12
Air Quality Not available.
Flu Activity Not available.
METAR KCRE 211453Z 03009KT 10SM BKN065 OVC110 07/02 A3026 RMK AO1 RAE1359 SLP247 P0000 60000 T00670017 51014

More Conditions Fewer Conditions

Pressure 30.26 in
Visibility 10.0 miles
Clouds Mostly Cloudy 6500 ft
Overcast 11000 ft
Windchill 41 °F
Dew Point 39 °F
Humidity 83%
Rainfall 0.00 in
Snow Depth Not available.
UV 1 out of 12
Pollen .60 out of 12
Air Quality Not available.
Flu Activity Not available.
METAR KCRE 211453Z 03009KT 10SM BKN065 OVC110 07/02 A3026 RMK AO1 RAE1359 SLP247 P0000 60000 T00670017 51014

More Conditions Fewer Conditions

10-Day Weather Forecast

Almanac

Astronomy

Dec. 21, 2014 Rise Set
Actual Time
Civil Twilight
Nautical Twilight
Astronomical Twilight
Moon
Length of Visible Light
Length of Day
Tomorrow will be .
, % of the Moon is Illuminated

Today's Extremes

State Highs State Lows

Community

WunderPhotos

Upload Photos

1,779,400 photos uploaded!

WunderBlogs® & News

Nearby

Air Quality

  Air Quality AQ Index Pollutant
Not available.

Snow Depth

Station Depth Elevation

Earthquake Activity

City Distance Mag. Time & Date
Minimum magnitude displayed is 2.5.

Coastal Water Temperatures

Place Temperature

Nearby Weather Stations